Perkinsville, New York
Current Conditions -  °F | °C
As of 10:54 AM on Saturday 25 Oct 2014 (Local Time) from KDSV Reporting Station
Clear Clear  
Wind Chill: 60°   Ceiling: Unl
Heat Index: 60°   Visibility: 10mi
Dew Point: 45°   Wind: 5mph
Humidity: 57%   Direction: 40°NE
Pressure: 29.79"   Gusts: NA
Location:  42.54°N, 77.63°W
Report Text: KDSV 251454Z AUTO 04004KT 10SM CLR 16/07 A2979 RMK AO2 SLP098 T01560072 58025
Loading
Personal Weather Stations






























Interactive Weather Map
Tropical Storm Tracking
New forecast layout! Learn more

10-Day Weather Forecast

Advertisements
Track Severe Weather on mobile